createdAt,value
2018-05-18T00:01:28.599Z,7.20
2018-05-18T00:03:58.746Z,6.23
2018-05-18T00:06:27.852Z,7.00
2018-05-18T00:08:56.500Z,6.20
2018-05-18T00:11:26.283Z,8.87
2018-05-18T00:13:54.830Z,6.67
2018-05-18T00:16:23.847Z,6.47
2018-05-18T00:18:53.669Z,7.70
2018-05-18T00:21:22.603Z,6.77
2018-05-18T00:23:51.797Z,7.37
2018-05-18T00:26:20.381Z,7.23
2018-05-18T00:28:50.882Z,7.67
2018-05-18T00:31:19.874Z,6.60
2018-05-18T00:33:48.772Z,7.13
2018-05-18T00:36:17.452Z,7.20
2018-05-18T00:38:46.753Z,7.60
2018-05-18T00:41:15.600Z,7.53
2018-05-18T00:43:45.060Z,7.20
2018-05-18T00:46:13.859Z,8.10
2018-05-18T00:48:42.757Z,6.63
2018-05-18T00:51:12.284Z,7.00
2018-05-18T00:53:42.139Z,7.93
2018-05-18T00:56:11.274Z,7.17
2018-05-18T00:58:40.538Z,7.10
2018-05-18T01:01:09.687Z,8.00
2018-05-18T01:03:38.361Z,7.17
2018-05-18T01:06:07.799Z,7.93
2018-05-18T01:08:38.676Z,8.07
2018-05-18T01:11:07.845Z,7.57
2018-05-18T01:13:36.972Z,7.47
2018-05-18T01:16:05.930Z,7.23
2018-05-18T01:18:34.568Z,7.20
2018-05-18T01:21:03.463Z,8.00
2018-05-18T01:23:32.733Z,7.03
2018-05-18T01:26:01.767Z,7.47
2018-05-18T01:28:31.018Z,8.67
2018-05-18T01:30:59.797Z,7.53
2018-05-18T01:33:28.721Z,7.13
2018-05-18T01:35:57.704Z,8.63
2018-05-18T01:38:26.843Z,7.50
2018-05-18T01:40:55.511Z,7.90
2018-05-18T01:43:24.368Z,8.40
2018-05-18T01:45:53.393Z,7.60
2018-05-18T01:48:22.538Z,7.50
2018-05-18T01:50:51.386Z,7.53
2018-05-18T01:53:20.222Z,7.97
2018-05-18T01:55:49.876Z,7.50
2018-05-18T01:58:18.773Z,8.70
2018-05-18T02:00:47.667Z,8.37
2018-05-18T02:03:16.528Z,8.97
2018-05-18T02:05:45.186Z,8.73
2018-05-18T02:08:14.094Z,7.50
2018-05-18T02:10:43.478Z,7.43
2018-05-18T02:13:12.470Z,7.10
2018-05-18T02:15:41.000Z,7.80
2018-05-18T02:18:09.642Z,9.53
2018-05-18T02:20:39.398Z,7.03
2018-05-18T02:23:08.019Z,8.93
2018-05-18T02:25:36.750Z,8.70
2018-05-18T02:28:05.624Z,8.67
2018-05-18T02:30:34.809Z,8.13
2018-05-18T02:33:03.672Z,8.13
2018-05-18T02:35:32.445Z,8.27
2018-05-18T02:38:01.939Z,8.37
2018-05-18T02:40:31.070Z,7.23
2018-05-18T02:43:00.712Z,8.90
2018-05-18T02:45:29.628Z,7.53
2018-05-18T02:47:58.501Z,8.60
2018-05-18T02:50:27.845Z,8.80
2018-05-18T02:52:56.461Z,8.47
2018-05-18T02:55:25.034Z,9.17
2018-05-18T02:57:53.920Z,8.70
2018-05-18T03:00:23.331Z,9.10
2018-05-18T03:02:52.297Z,9.13
2018-05-18T03:05:21.443Z,8.70
2018-05-18T03:07:50.291Z,8.40
2018-05-18T03:10:19.464Z,10.43
2018-05-18T03:12:47.989Z,10.17
2018-05-18T03:15:16.902Z,8.67
2018-05-18T03:17:46.073Z,9.50
2018-05-18T03:20:14.390Z,9.40
2018-05-18T03:22:42.816Z,9.97
2018-05-18T03:25:11.731Z,10.13
2018-05-18T03:27:40.295Z,10.03
2018-05-18T03:30:08.890Z,9.60
2018-05-18T03:32:38.703Z,10.23
2018-05-18T03:35:07.514Z,9.77
2018-05-18T03:37:36.539Z,11.87
2018-05-18T03:40:04.822Z,10.47
2018-05-18T03:42:34.523Z,11.13
2018-05-18T03:45:03.160Z,11.30
2018-05-18T03:47:31.768Z,11.40
2018-05-18T03:50:00.564Z,10.57
2018-05-18T03:52:30.643Z,11.10
2018-05-18T03:54:59.664Z,11.20
2018-05-18T03:57:28.357Z,13.37
2018-05-18T03:59:57.287Z,12.33
2018-05-18T04:02:38.291Z,11.63
2018-05-18T04:05:19.577Z,10.73
2018-05-18T04:08:00.530Z,13.83
2018-05-18T04:10:29.092Z,12.80
2018-05-18T04:12:58.058Z,12.40
2018-05-18T04:15:27.539Z,14.00
2018-05-18T04:17:56.717Z,13.10
2018-05-18T04:20:25.276Z,13.03
2018-05-18T04:22:54.258Z,13.53
2018-05-18T04:25:23.361Z,14.50
2018-05-18T04:27:52.752Z,15.50
2018-05-18T04:30:21.398Z,15.03
2018-05-18T04:32:49.970Z,14.50
2018-05-18T04:35:18.322Z,15.30
2018-05-18T04:37:47.628Z,16.30
2018-05-18T04:40:18.289Z,14.00
2018-05-18T04:42:46.912Z,15.30
2018-05-18T04:45:15.625Z,15.63
2018-05-18T04:47:43.871Z,15.80
2018-05-18T04:50:12.435Z,15.63
2018-05-18T04:52:40.687Z,15.30
2018-05-18T04:55:09.783Z,14.63
2018-05-18T04:57:38.448Z,15.50
2018-05-18T05:00:06.909Z,14.10
2018-05-18T05:02:35.659Z,15.70
2018-05-18T05:05:04.010Z,15.50
2018-05-18T05:07:32.728Z,16.60
2018-05-18T05:10:02.359Z,16.20
2018-05-18T05:12:30.738Z,16.57
2018-05-18T05:14:59.436Z,15.87
2018-05-18T05:17:28.355Z,16.13
2018-05-18T05:19:57.381Z,15.93
2018-05-18T05:22:26.484Z,15.80
2018-05-18T05:24:55.237Z,17.23
2018-05-18T05:27:23.713Z,15.33
2018-05-18T05:29:52.120Z,16.07
2018-05-18T05:32:20.420Z,15.43
2018-05-18T05:34:48.975Z,16.23
2018-05-18T05:37:17.659Z,18.07
2018-05-18T05:39:46.555Z,16.13
2018-05-18T05:42:15.481Z,17.10
2018-05-18T05:44:44.695Z,17.00
2018-05-18T05:47:13.504Z,17.27
2018-05-18T05:49:41.459Z,16.87
2018-05-18T05:52:09.948Z,17.43
2018-05-18T05:54:38.615Z,19.47
2018-05-18T05:57:07.191Z,18.20
2018-05-18T05:59:35.949Z,18.07
2018-05-18T06:02:04.760Z,18.33
2018-05-18T06:04:34.011Z,17.67
2018-05-18T06:07:02.760Z,18.33
2018-05-18T06:09:30.768Z,17.67
2018-05-18T06:11:59.270Z,17.60
2018-05-18T06:14:28.114Z,18.63
2018-05-18T06:16:56.813Z,17.37
2018-05-18T06:19:24.897Z,17.53
2018-05-18T06:21:52.939Z,16.27
2018-05-18T06:24:21.901Z,18.00
2018-05-18T06:26:50.287Z,16.00
2018-05-18T06:29:18.312Z,15.60
2018-05-18T06:31:47.440Z,15.93
2018-05-18T06:34:16.460Z,16.90
2018-05-18T06:36:45.702Z,17.43
2018-05-18T06:39:14.086Z,17.90
2018-05-18T06:41:43.603Z,17.93
2018-05-18T06:44:12.034Z,17.07
2018-05-18T06:46:40.536Z,16.93
2018-05-18T06:49:08.745Z,17.97
2018-05-18T06:51:37.808Z,17.60
2018-05-18T06:54:06.497Z,17.70
2018-05-18T06:56:35.853Z,18.10
2018-05-18T06:59:04.210Z,17.93
2018-05-18T07:01:33.364Z,16.57
2018-05-18T07:04:02.125Z,16.27
2018-05-18T07:06:30.815Z,16.50
2018-05-18T07:09:00.005Z,16.40
2018-05-18T07:11:29.180Z,16.33
2018-05-18T07:13:58.088Z,16.80
2018-05-18T07:16:27.042Z,15.47
2018-05-18T07:18:57.127Z,15.30
2018-05-18T07:21:25.874Z,14.67
2018-05-18T07:23:54.760Z,14.63
2018-05-18T07:26:23.291Z,15.47
2018-05-18T07:28:51.770Z,14.53
2018-05-18T07:31:20.719Z,15.33
2018-05-18T07:33:49.349Z,16.10
2018-05-18T07:36:17.678Z,15.23
2018-05-18T07:38:45.917Z,13.97
2018-05-18T07:41:14.278Z,14.50
2018-05-18T07:43:43.424Z,13.47
2018-05-18T07:46:12.300Z,14.33
2018-05-18T07:48:40.913Z,13.73
2018-05-18T07:51:09.725Z,16.30
2018-05-18T07:53:38.248Z,16.30
2018-05-18T07:56:06.660Z,15.80
2018-05-18T07:58:35.251Z,16.77
2018-05-18T08:01:03.527Z,16.70
2018-05-18T08:03:32.074Z,14.80
2018-05-18T08:06:00.815Z,16.47
2018-05-18T08:08:29.200Z,16.60
2018-05-18T08:10:57.384Z,18.17
2018-05-18T08:13:25.652Z,18.07
2018-05-18T08:15:54.835Z,19.03
2018-05-18T08:18:23.332Z,19.87
2018-05-18T08:20:52.173Z,18.50
2018-05-18T08:23:21.121Z,20.27
2018-05-18T08:25:49.507Z,19.83
2018-05-18T08:28:18.181Z,21.60
2018-05-18T08:30:59.071Z,20.57
2018-05-18T08:33:27.923Z,22.40
2018-05-18T08:35:56.665Z,19.53
2018-05-18T08:38:25.400Z,18.93
2018-05-18T08:40:54.575Z,21.33
2018-05-18T08:43:23.679Z,19.63
2018-05-18T08:45:52.994Z,20.20
2018-05-18T08:48:22.179Z,21.40
2018-05-18T08:50:54.108Z,21.80
2018-05-18T08:53:23.561Z,22.07
2018-05-18T08:55:52.311Z,23.47
2018-05-18T08:58:21.445Z,21.87
2018-05-18T09:00:50.052Z,23.73
2018-05-18T09:03:18.103Z,21.77
2018-05-18T09:05:46.995Z,22.67
2018-05-18T09:08:15.983Z,21.80
2018-05-18T09:10:44.734Z,23.73
2018-05-18T09:13:14.187Z,23.17
2018-05-18T09:15:43.149Z,21.70
2018-05-18T09:18:11.397Z,22.70
2018-05-18T09:20:40.849Z,23.03
2018-05-18T09:23:10.150Z,24.00
2018-05-18T09:25:39.049Z,23.13
2018-05-18T09:28:07.807Z,22.30
2018-05-18T09:30:36.820Z,22.23
2018-05-18T09:33:06.164Z,22.30
2018-05-18T09:35:34.991Z,22.30
2018-05-18T09:38:04.208Z,24.30
2018-05-18T09:40:33.270Z,20.63
2018-05-18T09:43:01.438Z,23.70
2018-05-18T09:45:30.248Z,21.90
2018-05-18T09:47:58.594Z,23.33
2018-05-18T09:50:27.135Z,20.20
2018-05-18T09:52:55.409Z,21.43
2018-05-18T09:55:23.982Z,20.83
2018-05-18T09:57:52.604Z,21.50
2018-05-18T10:00:21.241Z,20.40
2018-05-18T10:02:49.491Z,21.70
2018-05-18T10:05:17.668Z,22.40
2018-05-18T10:07:46.194Z,23.17
2018-05-18T10:10:14.286Z,21.80
2018-05-18T10:12:43.046Z,21.23
2018-05-18T10:15:12.529Z,20.90
2018-05-18T10:17:41.236Z,21.00
2018-05-18T10:20:10.363Z,21.40
2018-05-18T10:22:39.319Z,21.50
2018-05-18T10:25:08.359Z,19.43
2018-05-18T10:27:36.891Z,19.73
2018-05-18T10:30:05.284Z,18.83
2018-05-18T10:32:33.807Z,19.47
2018-05-18T10:35:02.370Z,19.90
2018-05-18T10:37:30.867Z,19.80
2018-05-18T10:39:58.731Z,16.63
2018-05-18T10:42:27.690Z,20.57
2018-05-18T10:44:55.990Z,20.30
2018-05-18T10:47:24.378Z,21.77
2018-05-18T10:49:53.225Z,20.27
2018-05-18T10:52:21.577Z,18.57
2018-05-18T10:54:49.784Z,20.57
2018-05-18T10:57:18.126Z,22.57
2018-05-18T10:59:46.954Z,22.30
2018-05-18T11:02:16.019Z,24.97
2018-05-18T11:04:45.333Z,23.60
2018-05-18T11:07:13.816Z,23.23
2018-05-18T11:09:42.713Z,24.30
2018-05-18T11:12:11.057Z,22.10
2018-05-18T11:14:39.973Z,23.50
2018-05-18T11:17:09.271Z,22.50
2018-05-18T11:19:38.145Z,22.23
2018-05-18T11:22:07.385Z,22.20
2018-05-18T11:24:36.296Z,20.87
2018-05-18T11:27:05.300Z,23.30
2018-05-18T11:29:33.873Z,24.37
2018-05-18T11:32:02.450Z,20.20
2018-05-18T11:34:30.892Z,21.90
2018-05-18T11:37:01.963Z,24.40
2018-05-18T11:39:30.280Z,22.37
2018-05-18T11:41:58.753Z,22.97
2018-05-18T11:44:27.504Z,21.20
2018-05-18T11:46:56.544Z,23.47
2018-05-18T11:49:25.182Z,22.80
2018-05-18T11:51:54.269Z,20.90
2018-05-18T11:54:22.857Z,22.03
2018-05-18T11:56:51.758Z,23.50
2018-05-18T11:59:20.860Z,26.10
2018-05-18T12:01:49.241Z,25.37
2018-05-18T12:04:18.534Z,23.57
2018-05-18T12:06:47.965Z,22.93
2018-05-18T12:09:17.053Z,24.10
2018-05-18T12:11:45.782Z,22.43
2018-05-18T12:14:14.388Z,20.70
2018-05-18T12:16:43.211Z,20.50
2018-05-18T12:19:12.599Z,22.97
2018-05-18T12:21:41.542Z,26.40
2018-05-18T12:24:10.113Z,24.07
2018-05-18T12:26:39.756Z,24.77
2018-05-18T12:29:08.123Z,23.90
2018-05-18T12:31:36.759Z,27.37
2018-05-18T12:34:05.317Z,26.77
2018-05-18T12:36:34.643Z,23.97
2018-05-18T12:39:03.647Z,23.77
2018-05-18T12:41:32.196Z,24.57
2018-05-18T12:44:00.666Z,25.23
2018-05-18T12:46:29.717Z,23.10
2018-05-18T12:48:59.019Z,23.77
2018-05-18T12:51:28.198Z,22.97
2018-05-18T12:53:56.977Z,25.60
2018-05-18T12:56:25.597Z,26.57
2018-05-18T12:58:54.509Z,21.40
2018-05-18T13:01:23.738Z,24.13
2018-05-18T13:03:52.593Z,22.37
2018-05-18T13:06:22.058Z,23.00
2018-05-18T13:08:51.021Z,22.60
2018-05-18T13:11:19.620Z,22.80
2018-05-18T13:13:48.687Z,23.67
2018-05-18T13:16:17.271Z,23.80
2018-05-18T13:18:46.217Z,22.07
2018-05-18T13:21:14.961Z,26.70
2018-05-18T13:23:43.573Z,27.20
2018-05-18T13:26:12.235Z,24.30
2018-05-18T13:28:41.005Z,23.90
2018-05-18T13:31:09.710Z,22.00
2018-05-18T13:33:38.374Z,25.47
2018-05-18T13:36:07.432Z,26.30
2018-05-18T13:38:36.204Z,29.17
2018-05-18T13:41:04.263Z,28.03
2018-05-18T13:43:33.511Z,28.07
2018-05-18T13:46:02.551Z,27.47
2018-05-18T13:48:32.501Z,25.50
2018-05-18T13:51:01.667Z,24.80
2018-05-18T13:53:30.464Z,25.90
2018-05-18T13:55:59.561Z,27.20
2018-05-18T13:58:29.101Z,24.70
2018-05-18T14:00:57.499Z,24.90
2018-05-18T14:03:26.324Z,23.30
2018-05-18T14:05:54.875Z,20.40
2018-05-18T14:08:24.557Z,24.97
2018-05-18T14:10:53.314Z,25.50
2018-05-18T14:13:21.289Z,28.57
2018-05-18T14:15:49.997Z,24.33
2018-05-18T14:18:19.503Z,22.70
2018-05-18T14:20:49.138Z,21.90
2018-05-18T14:23:17.708Z,21.93
2018-05-18T14:25:46.300Z,19.73
2018-05-18T14:28:15.373Z,21.90
2018-05-18T14:30:44.613Z,23.20
2018-05-18T14:33:13.468Z,24.90
2018-05-18T14:35:42.250Z,24.17
2018-05-18T14:38:11.528Z,25.00
2018-05-18T14:40:40.550Z,25.00
2018-05-18T14:43:08.826Z,20.37
2018-05-18T14:45:37.552Z,20.47
2018-05-18T14:48:05.660Z,21.40
2018-05-18T14:50:34.777Z,24.63
2018-05-18T14:53:03.252Z,20.50
2018-05-18T14:55:31.829Z,21.57
2018-05-18T14:58:00.782Z,21.50
2018-05-18T15:00:30.188Z,20.20
2018-05-18T15:02:59.052Z,20.77
2018-05-18T15:05:28.162Z,22.07
2018-05-18T15:07:56.908Z,20.50
2018-05-18T15:10:25.497Z,20.50
2018-05-18T15:12:54.856Z,19.03
2018-05-18T15:15:23.767Z,19.10
2018-05-18T15:17:52.177Z,20.97
2018-05-18T15:20:20.883Z,21.20
2018-05-18T15:22:49.469Z,20.30
2018-05-18T15:25:18.552Z,19.63
2018-05-18T15:27:48.307Z,19.27
2018-05-18T15:30:16.690Z,17.60
2018-05-18T15:32:45.075Z,18.83
2018-05-18T15:35:13.893Z,18.17
2018-05-18T15:37:42.813Z,16.37
2018-05-18T15:40:11.455Z,16.17
2018-05-18T15:42:40.260Z,14.80
2018-05-18T15:45:09.051Z,15.53
2018-05-18T15:47:37.641Z,15.30
2018-05-18T15:50:06.460Z,15.37
2018-05-18T15:52:34.819Z,15.50
2018-05-18T15:55:04.509Z,15.40
2018-05-18T15:57:33.466Z,15.40
2018-05-18T16:00:02.679Z,15.10
2018-05-18T16:02:31.743Z,15.93
2018-05-18T16:05:00.435Z,13.50
2018-05-18T16:07:29.769Z,13.63
2018-05-18T16:09:58.385Z,13.70
2018-05-18T16:12:27.269Z,13.57
2018-05-18T16:14:56.998Z,13.63
2018-05-18T16:17:25.361Z,13.47
2018-05-18T16:19:53.983Z,14.70
2018-05-18T16:22:22.921Z,13.40
2018-05-18T16:24:53.930Z,12.50
2018-05-18T16:27:22.742Z,13.57
2018-05-18T16:29:52.796Z,11.77
2018-05-18T16:32:20.811Z,13.20
2018-05-18T16:34:48.972Z,14.60
2018-05-18T16:37:17.739Z,16.07
2018-05-18T16:39:46.101Z,14.03
2018-05-18T16:42:14.846Z,12.60
2018-05-18T16:44:43.777Z,12.53
2018-05-18T16:47:12.458Z,15.10
2018-05-18T16:49:41.404Z,14.17
2018-05-18T16:52:09.855Z,14.47
2018-05-18T16:54:37.962Z,14.37
2018-05-18T16:57:06.750Z,13.40
2018-05-18T16:59:35.390Z,12.53
2018-05-18T17:02:04.676Z,12.70
2018-05-18T17:04:33.274Z,12.70
2018-05-18T17:07:02.203Z,14.37
2018-05-18T17:09:30.353Z,15.40
2018-05-18T17:11:59.054Z,12.90
2018-05-18T17:14:28.279Z,13.37
2018-05-18T17:16:57.171Z,12.97
2018-05-18T17:19:27.061Z,12.83
2018-05-18T17:21:55.305Z,12.03
2018-05-18T17:24:23.736Z,14.23
2018-05-18T17:26:52.161Z,14.40
2018-05-18T17:29:21.175Z,13.40
2018-05-18T17:31:49.197Z,13.23
2018-05-18T17:34:17.181Z,13.83
2018-05-18T17:36:45.667Z,12.87
2018-05-18T17:39:14.193Z,12.50
2018-05-18T17:41:42.248Z,12.77
2018-05-18T17:44:10.605Z,13.00
2018-05-18T17:46:39.527Z,13.43
2018-05-18T17:49:08.321Z,12.80
2018-05-18T17:51:37.370Z,13.13
2018-05-18T17:54:05.830Z,13.07
2018-05-18T17:56:34.295Z,12.77
2018-05-18T17:59:02.414Z,13.70
2018-05-18T18:01:30.895Z,11.90
2018-05-18T18:03:59.721Z,12.80
2018-05-18T18:06:28.324Z,11.83
2018-05-18T18:08:56.808Z,12.50
2018-05-18T18:11:25.299Z,11.50
2018-05-18T18:13:53.768Z,10.67
2018-05-18T18:16:22.686Z,10.50
2018-05-18T18:18:50.641Z,11.67
2018-05-18T18:21:19.089Z,10.50
2018-05-18T18:23:47.841Z,11.30
2018-05-18T18:26:16.434Z,11.00
2018-05-18T18:28:45.469Z,10.80
2018-05-18T18:31:14.699Z,10.67
2018-05-18T18:33:43.959Z,10.30
2018-05-18T18:36:12.883Z,12.40
2018-05-18T18:38:40.929Z,11.03
2018-05-18T18:41:09.986Z,11.37
2018-05-18T18:43:39.708Z,10.73
2018-05-18T18:46:08.059Z,10.93
2018-05-18T18:48:36.264Z,10.43
2018-05-18T18:51:05.802Z,11.03
2018-05-18T18:53:34.409Z,10.90
2018-05-18T18:56:03.529Z,10.03
2018-05-18T18:58:31.709Z,10.47
2018-05-18T19:00:59.869Z,11.57
2018-05-18T19:03:28.449Z,11.83
2018-05-18T19:05:57.883Z,17.77
2018-05-18T19:08:31.993Z,13.63
2018-05-18T19:11:01.403Z,12.23
2018-05-18T19:13:29.357Z,11.73
2018-05-18T19:16:01.073Z,11.03
2018-05-18T19:18:33.007Z,10.47
2018-05-18T19:21:03.951Z,10.30
2018-05-18T19:23:38.292Z,11.30
2018-05-18T19:28:51.291Z,9.93
2018-05-18T19:31:20.889Z,10.93
2018-05-18T19:33:53.920Z,10.80
2018-05-18T19:36:35.517Z,11.90
2018-05-18T19:39:03.564Z,10.60
2018-05-18T19:41:31.838Z,10.50
2018-05-18T19:44:00.627Z,11.47
2018-05-18T19:46:28.852Z,10.93
2018-05-18T19:48:58.128Z,11.93
2018-05-18T19:51:26.697Z,12.20
2018-05-18T19:53:55.287Z,11.60
2018-05-18T19:56:23.859Z,11.63
2018-05-18T19:58:52.263Z,11.17
2018-05-18T20:01:21.047Z,11.43
2018-05-18T20:03:49.191Z,11.60
2018-05-18T20:06:18.118Z,11.57
2018-05-18T20:08:46.410Z,10.83
2018-05-18T20:11:14.917Z,11.67
2018-05-18T20:13:43.151Z,13.80
2018-05-18T20:16:12.625Z,12.33
2018-05-18T20:18:41.033Z,10.97
2018-05-18T20:21:09.974Z,11.40
2018-05-18T20:23:38.817Z,10.73
2018-05-18T20:26:07.531Z,12.00
2018-05-18T20:28:36.020Z,11.33
2018-05-18T20:31:05.026Z,12.33
2018-05-18T20:33:34.098Z,13.00
2018-05-18T20:36:02.989Z,11.77
2018-05-18T20:38:32.525Z,12.10
2018-05-18T20:41:01.552Z,13.80
2018-05-18T20:43:30.218Z,13.20
2018-05-18T20:45:59.111Z,12.60
2018-05-18T20:48:27.076Z,12.90
2018-05-18T20:50:55.406Z,11.93
2018-05-18T20:53:23.751Z,11.70
2018-05-18T20:55:51.900Z,12.43
2018-05-18T20:58:20.416Z,12.77
2018-05-18T21:00:48.459Z,11.93
2018-05-18T21:03:17.523Z,11.40
2018-05-18T21:05:47.112Z,11.30
2018-05-18T21:08:15.310Z,12.70
2018-05-18T21:10:43.488Z,11.50
2018-05-18T21:13:12.109Z,13.70
2018-05-18T21:15:41.317Z,12.07
2018-05-18T21:18:09.947Z,12.23
2018-05-18T21:20:39.311Z,12.57
2018-05-18T21:23:07.651Z,13.40
2018-05-18T21:25:36.357Z,12.30
2018-05-18T21:28:05.025Z,11.80
2018-05-18T21:30:33.478Z,12.20
2018-05-18T21:33:02.075Z,12.33
2018-05-18T21:35:30.526Z,13.37
2018-05-18T21:37:58.901Z,12.37
2018-05-18T21:40:27.643Z,12.73
2018-05-18T21:42:56.879Z,12.93
2018-05-18T21:45:26.437Z,12.40
2018-05-18T21:47:55.079Z,13.90
2018-05-18T21:50:23.525Z,13.00
2018-05-18T21:52:52.042Z,13.40
2018-05-18T21:55:19.708Z,12.20
2018-05-18T21:57:48.604Z,13.00
2018-05-18T22:00:17.615Z,13.23
2018-05-18T22:02:46.057Z,11.70
2018-05-18T22:05:14.517Z,12.37
2018-05-18T22:07:42.849Z,13.23
2018-05-18T22:10:11.812Z,12.47
2018-05-18T22:12:40.376Z,12.90
2018-05-18T22:15:08.985Z,13.10
2018-05-18T22:17:37.983Z,13.70
2018-05-18T22:20:06.857Z,13.07
2018-05-18T22:22:34.777Z,13.30
2018-05-18T22:25:03.389Z,12.70
2018-05-18T22:27:31.936Z,12.57
2018-05-18T22:30:00.517Z,12.13
2018-05-18T22:32:29.030Z,12.80
2018-05-18T22:34:57.283Z,12.57
2018-05-18T22:37:25.832Z,13.37
2018-05-18T22:39:55.207Z,12.57
2018-05-18T22:42:25.156Z,12.57
2018-05-18T22:44:53.616Z,12.37
2018-05-18T22:47:21.332Z,14.60
2018-05-18T22:49:50.598Z,15.10
2018-05-18T22:52:19.445Z,13.03
2018-05-18T22:54:49.400Z,13.40
2018-05-18T22:57:18.277Z,13.63
2018-05-18T22:59:47.139Z,13.20
2018-05-18T23:02:15.567Z,14.50
2018-05-18T23:04:44.300Z,14.30
2018-05-18T23:07:13.250Z,13.53
2018-05-18T23:09:42.181Z,13.10
2018-05-18T23:12:10.955Z,13.27
2018-05-18T23:14:39.303Z,13.20
2018-05-18T23:17:07.559Z,13.27
2018-05-18T23:19:35.985Z,11.77
2018-05-18T23:22:04.559Z,13.47
2018-05-18T23:24:34.079Z,12.10
2018-05-18T23:27:02.868Z,12.53
2018-05-18T23:29:31.831Z,14.03
2018-05-18T23:32:01.484Z,13.50
2018-05-18T23:34:30.834Z,15.00
2018-05-18T23:37:00.071Z,15.37
2018-05-18T23:39:28.977Z,13.80
2018-05-18T23:41:57.553Z,12.90
2018-05-18T23:44:26.120Z,13.63
2018-05-18T23:46:54.747Z,16.30
2018-05-18T23:49:23.937Z,14.10
2018-05-18T23:51:52.851Z,13.80
2018-05-18T23:54:21.544Z,14.20
2018-05-18T23:56:50.302Z,15.83
2018-05-18T23:59:19.249Z,13.37
